sensor_id;sensor_type;location;lat;lon;timestamp;pressure;altitude;pressure_sealevel;temperature
73937;BMP180;59249;59.736;30.568;2024-03-02T00:01:35;102218.00;;;1.80
73937;BMP180;59249;59.736;30.568;2024-03-02T00:04:07;102212.00;;;1.80
73937;BMP180;59249;59.736;30.568;2024-03-02T00:06:37;102209.00;;;1.80
73937;BMP180;59249;59.736;30.568;2024-03-02T00:09:06;102202.00;;;1.80
73937;BMP180;59249;59.736;30.568;2024-03-02T00:11:38;102203.00;;;1.80
73937;BMP180;59249;59.736;30.568;2024-03-02T00:14:09;102195.00;;;1.80
73937;BMP180;59249;59.736;30.568;2024-03-02T00:16:40;102198.00;;;1.80
73937;BMP180;59249;59.736;30.568;2024-03-02T00:19:13;102191.00;;;1.80
73937;BMP180;59249;59.736;30.568;2024-03-02T00:21:45;102198.00;;;1.80
73937;BMP180;59249;59.736;30.568;2024-03-02T00:24:19;102190.00;;;1.80
73937;BMP180;59249;59.736;30.568;2024-03-02T00:26:59;102198.00;;;1.80
73937;BMP180;59249;59.736;30.568;2024-03-02T00:29:29;102193.00;;;1.90
73937;BMP180;59249;59.736;30.568;2024-03-02T00:31:58;102191.00;;;1.90
73937;BMP180;59249;59.736;30.568;2024-03-02T00:34:34;102193.00;;;1.80
73937;BMP180;59249;59.736;30.568;2024-03-02T00:37:05;102191.00;;;1.90
73937;BMP180;59249;59.736;30.568;2024-03-02T00:39:35;102188.00;;;1.90
73937;BMP180;59249;59.736;30.568;2024-03-02T00:42:09;102203.00;;;1.90
73937;BMP180;59249;59.736;30.568;2024-03-02T00:44:44;102191.00;;;1.90
73937;BMP180;59249;59.736;30.568;2024-03-02T00:47:26;102199.00;;;1.90
73937;BMP180;59249;59.736;30.568;2024-03-02T00:50:04;102199.00;;;2.00
73937;BMP180;59249;59.736;30.568;2024-03-02T00:52:59;102203.00;;;2.00
73937;BMP180;59249;59.736;30.568;2024-03-02T00:55:36;102194.00;;;1.90
73937;BMP180;59249;59.736;30.568;2024-03-02T00:58:22;102190.00;;;2.00
73937;BMP180;59249;59.736;30.568;2024-03-02T01:01:05;102189.00;;;2.00
73937;BMP180;59249;59.736;30.568;2024-03-02T01:03:36;102186.00;;;2.00
73937;BMP180;59249;59.736;30.568;2024-03-02T01:06:16;102191.00;;;1.90
73937;BMP180;59249;59.736;30.568;2024-03-02T01:08:45;102182.00;;;2.00
73937;BMP180;59249;59.736;30.568;2024-03-02T01:11:19;102188.00;;;2.00
73937;BMP180;59249;59.736;30.568;2024-03-02T01:13:51;102196.00;;;2.00
73937;BMP180;59249;59.736;30.568;2024-03-02T01:16:20;102185.00;;;2.10
73937;BMP180;59249;59.736;30.568;2024-03-02T01:18:49;102187.00;;;2.00
73937;BMP180;59249;59.736;30.568;2024-03-02T01:21:20;102190.00;;;2.10
73937;BMP180;59249;59.736;30.568;2024-03-02T01:24:03;102187.00;;;2.10
73937;BMP180;59249;59.736;30.568;2024-03-02T01:26:32;102191.00;;;2.10
73937;BMP180;59249;59.736;30.568;2024-03-02T01:29:01;102184.00;;;2.10
73937;BMP180;59249;59.736;30.568;2024-03-02T01:31:30;102186.00;;;2.10
73937;BMP180;59249;59.736;30.568;2024-03-02T01:34:04;102176.00;;;2.10
73937;BMP180;59249;59.736;30.568;2024-03-02T01:36:37;102192.00;;;2.10
73937;BMP180;59249;59.736;30.568;2024-03-02T01:39:06;102188.00;;;2.10
73937;BMP180;59249;59.736;30.568;2024-03-02T01:41:36;102190.00;;;2.10
73937;BMP180;59249;59.736;30.568;2024-03-02T01:44:05;102192.00;;;2.20
73937;BMP180;59249;59.736;30.568;2024-03-02T01:46:34;102185.00;;;2.10
73937;BMP180;59249;59.736;30.568;2024-03-02T01:49:12;102194.00;;;2.20
73937;BMP180;59249;59.736;30.568;2024-03-02T01:51:47;102186.00;;;2.20
73937;BMP180;59249;59.736;30.568;2024-03-02T01:54:18;102186.00;;;2.20
73937;BMP180;59249;59.736;30.568;2024-03-02T01:56:57;102187.00;;;2.10
73937;BMP180;59249;59.736;30.568;2024-03-02T01:59:27;102182.00;;;2.10
73937;BMP180;59249;59.736;30.568;2024-03-02T02:01:56;102190.00;;;2.20
73937;BMP180;59249;59.736;30.568;2024-03-02T02:04:38;102185.00;;;2.20
73937;BMP180;59249;59.736;30.568;2024-03-02T02:07:20;102184.00;;;2.20
73937;BMP180;59249;59.736;30.568;2024-03-02T02:09:52;102179.00;;;2.20
73937;BMP180;59249;59.736;30.568;2024-03-02T02:12:21;102180.00;;;2.20
73937;BMP180;59249;59.736;30.568;2024-03-02T02:14:52;102188.00;;;2.20
73937;BMP180;59249;59.736;30.568;2024-03-02T02:17:21;102184.00;;;2.20
73937;BMP180;59249;59.736;30.568;2024-03-02T02:19:53;102186.00;;;2.20
73937;BMP180;59249;59.736;30.568;2024-03-02T02:22:39;102192.00;;;2.30
73937;BMP180;59249;59.736;30.568;2024-03-02T02:25:10;102194.00;;;2.30
73937;BMP180;59249;59.736;30.568;2024-03-02T02:27:40;102199.00;;;2.20
73937;BMP180;59249;59.736;30.568;2024-03-02T02:30:23;102194.00;;;2.30
73937;BMP180;59249;59.736;30.568;2024-03-02T02:32:59;102195.00;;;2.30
73937;BMP180;59249;59.736;30.568;2024-03-02T02:35:31;102200.00;;;2.30
73937;BMP180;59249;59.736;30.568;2024-03-02T02:38:21;102201.00;;;2.30
73937;BMP180;59249;59.736;30.568;2024-03-02T02:41:03;102204.00;;;2.30
73937;BMP180;59249;59.736;30.568;2024-03-02T02:43:33;102196.00;;;2.30
73937;BMP180;59249;59.736;30.568;2024-03-02T02:46:12;102208.00;;;2.30
73937;BMP180;59249;59.736;30.568;2024-03-02T02:48:49;102206.00;;;2.30
73937;BMP180;59249;59.736;30.568;2024-03-02T02:51:23;102202.00;;;2.30
73937;BMP180;59249;59.736;30.568;2024-03-02T02:53:56;102203.00;;;2.30
73937;BMP180;59249;59.736;30.568;2024-03-02T02:56:28;102206.00;;;2.30
73937;BMP180;59249;59.736;30.568;2024-03-02T02:58:57;102208.00;;;2.30
73937;BMP180;59249;59.736;30.568;2024-03-02T03:01:29;102195.00;;;2.30
73937;BMP180;59249;59.736;30.568;2024-03-02T03:04:02;102208.00;;;2.40
73937;BMP180;59249;59.736;30.568;2024-03-02T03:06:32;102203.00;;;2.40
73937;BMP180;59249;59.736;30.568;2024-03-02T03:09:16;102208.00;;;2.40
73937;BMP180;59249;59.736;30.568;2024-03-02T03:11:47;102201.00;;;2.30
73937;BMP180;59249;59.736;30.568;2024-03-02T03:14:22;102193.00;;;2.40
73937;BMP180;59249;59.736;30.568;2024-03-02T03:16:51;102202.00;;;2.40
73937;BMP180;59249;59.736;30.568;2024-03-02T03:19:20;102201.00;;;2.40
73937;BMP180;59249;59.736;30.568;2024-03-02T03:21:49;102192.00;;;2.40
73937;BMP180;59249;59.736;30.568;2024-03-02T03:24:20;102197.00;;;2.40
73937;BMP180;59249;59.736;30.568;2024-03-02T03:26:52;102200.00;;;2.40
73937;BMP180;59249;59.736;30.568;2024-03-02T03:29:21;102191.00;;;2.40
73937;BMP180;59249;59.736;30.568;2024-03-02T03:31:50;102205.00;;;2.40
73937;BMP180;59249;59.736;30.568;2024-03-02T03:34:20;102197.00;;;2.40
73937;BMP180;59249;59.736;30.568;2024-03-02T03:36:51;102209.00;;;2.40
73937;BMP180;59249;59.736;30.568;2024-03-02T03:39:35;102207.00;;;2.40
73937;BMP180;59249;59.736;30.568;2024-03-02T03:42:07;102205.00;;;2.40
73937;BMP180;59249;59.736;30.568;2024-03-02T03:44:40;102194.00;;;2.40
73937;BMP180;59249;59.736;30.568;2024-03-02T03:47:10;102195.00;;;2.40
73937;BMP180;59249;59.736;30.568;2024-03-02T03:49:54;102192.00;;;2.40
73937;BMP180;59249;59.736;30.568;2024-03-02T03:52:29;102191.00;;;2.40
73937;BMP180;59249;59.736;30.568;2024-03-02T03:55:03;102197.00;;;2.40
73937;BMP180;59249;59.736;30.568;2024-03-02T03:57:44;102191.00;;;2.40
73937;BMP180;59249;59.736;30.568;2024-03-02T04:00:14;102198.00;;;2.50
73937;BMP180;59249;59.736;30.568;2024-03-02T04:02:45;102192.00;;;2.40
73937;BMP180;59249;59.736;30.568;2024-03-02T04:05:18;102191.00;;;2.50
73937;BMP180;59249;59.736;30.568;2024-03-02T04:07:50;102187.00;;;2.50
73937;BMP180;59249;59.736;30.568;2024-03-02T04:10:24;102184.00;;;2.50
73937;BMP180;59249;59.736;30.568;2024-03-02T04:12:55;102168.00;;;2.50
73937;BMP180;59249;59.736;30.568;2024-03-02T04:15:41;102169.00;;;2.50
73937;BMP180;59249;59.736;30.568;2024-03-02T04:18:11;102171.00;;;2.50
73937;BMP180;59249;59.736;30.568;2024-03-02T04:20:40;102176.00;;;2.50
73937;BMP180;59249;59.736;30.568;2024-03-02T04:23:13;102172.00;;;2.40
73937;BMP180;59249;59.736;30.568;2024-03-02T04:25:43;102176.00;;;2.50
73937;BMP180;59249;59.736;30.568;2024-03-02T04:28:16;102185.00;;;2.50
73937;BMP180;59249;59.736;30.568;2024-03-02T04:30:49;102175.00;;;2.50
73937;BMP180;59249;59.736;30.568;2024-03-02T04:33:32;102183.00;;;2.50
73937;BMP180;59249;59.736;30.568;2024-03-02T04:36:03;102184.00;;;2.50
73937;BMP180;59249;59.736;30.568;2024-03-02T04:38:39;102191.00;;;2.60
73937;BMP180;59249;59.736;30.568;2024-03-02T04:41:16;102191.00;;;2.60
73937;BMP180;59249;59.736;30.568;2024-03-02T04:43:57;102201.00;;;2.60
73937;BMP180;59249;59.736;30.568;2024-03-02T04:46:34;102200.00;;;2.60
73937;BMP180;59249;59.736;30.568;2024-03-02T04:49:04;102200.00;;;2.60
73937;BMP180;59249;59.736;30.568;2024-03-02T04:51:33;102200.00;;;2.60
73937;BMP180;59249;59.736;30.568;2024-03-02T04:54:03;102201.00;;;2.60
73937;BMP180;59249;59.736;30.568;2024-03-02T04:56:35;102204.00;;;2.60
73937;BMP180;59249;59.736;30.568;2024-03-02T04:59:26;102199.00;;;2.70
73937;BMP180;59249;59.736;30.568;2024-03-02T05:01:56;102204.00;;;2.70
73937;BMP180;59249;59.736;30.568;2024-03-02T05:04:28;102200.00;;;2.70
73937;BMP180;59249;59.736;30.568;2024-03-02T05:07:00;102189.00;;;2.70
73937;BMP180;59249;59.736;30.568;2024-03-02T05:09:30;102198.00;;;2.70
73937;BMP180;59249;59.736;30.568;2024-03-02T05:12:06;102189.00;;;2.70
73937;BMP180;59249;59.736;30.568;2024-03-02T05:15:10;102186.00;;;2.70
73937;BMP180;59249;59.736;30.568;2024-03-02T05:17:52;102191.00;;;2.70
73937;BMP180;59249;59.736;30.568;2024-03-02T05:20:39;102186.00;;;2.80
73937;BMP180;59249;59.736;30.568;2024-03-02T05:23:12;102196.00;;;2.80
73937;BMP180;59249;59.736;30.568;2024-03-02T05:25:43;102204.00;;;2.80
73937;BMP180;59249;59.736;30.568;2024-03-02T05:28:15;102202.00;;;2.70
73937;BMP180;59249;59.736;30.568;2024-03-02T05:30:51;102199.00;;;2.80
73937;BMP180;59249;59.736;30.568;2024-03-02T05:33:26;102207.00;;;2.80
73937;BMP180;59249;59.736;30.568;2024-03-02T05:35:58;102213.00;;;2.80
73937;BMP180;59249;59.736;30.568;2024-03-02T05:38:29;102216.00;;;2.80
73937;BMP180;59249;59.736;30.568;2024-03-02T05:41:01;102216.00;;;2.90
73937;BMP180;59249;59.736;30.568;2024-03-02T05:43:35;102214.00;;;2.80
73937;BMP180;59249;59.736;30.568;2024-03-02T05:46:16;102208.00;;;2.90
73937;BMP180;59249;59.736;30.568;2024-03-02T05:48:47;102216.00;;;2.90
73937;BMP180;59249;59.736;30.568;2024-03-02T05:51:30;102212.00;;;2.90
73937;BMP180;59249;59.736;30.568;2024-03-02T05:54:02;102214.00;;;2.80
73937;BMP180;59249;59.736;30.568;2024-03-02T05:56:36;102205.00;;;2.90
73937;BMP180;59249;59.736;30.568;2024-03-02T05:59:11;102212.00;;;2.80
73937;BMP180;59249;59.736;30.568;2024-03-02T06:01:44;102217.00;;;2.80
73937;BMP180;59249;59.736;30.568;2024-03-02T06:04:25;102211.00;;;2.90
73937;BMP180;59249;59.736;30.568;2024-03-02T06:06:54;102210.00;;;2.90
73937;BMP180;59249;59.736;30.568;2024-03-02T06:09:25;102215.00;;;2.90
73937;BMP180;59249;59.736;30.568;2024-03-02T06:11:59;102222.00;;;3.00
73937;BMP180;59249;59.736;30.568;2024-03-02T06:14:29;102221.00;;;3.00
73937;BMP180;59249;59.736;30.568;2024-03-02T06:17:00;102230.00;;;3.00
73937;BMP180;59249;59.736;30.568;2024-03-02T06:19:30;102226.00;;;2.90
73937;BMP180;59249;59.736;30.568;2024-03-02T06:22:00;102223.00;;;2.90
73937;BMP180;59249;59.736;30.568;2024-03-02T06:24:33;102222.00;;;2.90
73937;BMP180;59249;59.736;30.568;2024-03-02T06:27:03;102226.00;;;3.00
73937;BMP180;59249;59.736;30.568;2024-03-02T06:29:42;102211.00;;;3.00
73937;BMP180;59249;59.736;30.568;2024-03-02T06:32:16;102221.00;;;3.00
73937;BMP180;59249;59.736;30.568;2024-03-02T06:34:57;102224.00;;;3.00
73937;BMP180;59249;59.736;30.568;2024-03-02T06:37:39;102212.00;;;3.00
73937;BMP180;59249;59.736;30.568;2024-03-02T06:40:13;102203.00;;;3.00
73937;BMP180;59249;59.736;30.568;2024-03-02T06:42:48;102214.00;;;2.90
73937;BMP180;59249;59.736;30.568;2024-03-02T06:45:22;102211.00;;;2.90
73937;BMP180;59249;59.736;30.568;2024-03-02T06:47:58;102212.00;;;3.00
73937;BMP180;59249;59.736;30.568;2024-03-02T06:50:35;102210.00;;;3.00
73937;BMP180;59249;59.736;30.568;2024-03-02T06:53:04;102217.00;;;3.00
73937;BMP180;59249;59.736;30.568;2024-03-02T06:55:34;102218.00;;;3.10
73937;BMP180;59249;59.736;30.568;2024-03-02T06:58:04;102214.00;;;3.00
73937;BMP180;59249;59.736;30.568;2024-03-02T07:00:45;102216.00;;;3.10
73937;BMP180;59249;59.736;30.568;2024-03-02T07:03:15;102220.00;;;3.00
73937;BMP180;59249;59.736;30.568;2024-03-02T07:05:45;102224.00;;;3.00
73937;BMP180;59249;59.736;30.568;2024-03-02T07:08:18;102220.00;;;3.10
73937;BMP180;59249;59.736;30.568;2024-03-02T07:10:47;102226.00;;;3.10
73937;BMP180;59249;59.736;30.568;2024-03-02T07:13:20;102212.00;;;3.20
73937;BMP180;59249;59.736;30.568;2024-03-02T07:15:55;102221.00;;;3.20
73937;BMP180;59249;59.736;30.568;2024-03-02T07:18:54;102226.00;;;3.30
73937;BMP180;59249;59.736;30.568;2024-03-02T07:21:27;102218.00;;;3.20
73937;BMP180;59249;59.736;30.568;2024-03-02T07:23:56;102216.00;;;3.30
73937;BMP180;59249;59.736;30.568;2024-03-02T07:26:28;102219.00;;;3.30
73937;BMP180;59249;59.736;30.568;2024-03-02T07:29:01;102221.00;;;3.40
73937;BMP180;59249;59.736;30.568;2024-03-02T07:31:32;102219.00;;;3.30
73937;BMP180;59249;59.736;30.568;2024-03-02T07:34:02;102214.00;;;3.30
73937;BMP180;59249;59.736;30.568;2024-03-02T07:36:33;102223.00;;;3.40
73937;BMP180;59249;59.736;30.568;2024-03-02T07:39:04;102224.00;;;3.40
73937;BMP180;59249;59.736;30.568;2024-03-02T07:41:39;102219.00;;;3.40
73937;BMP180;59249;59.736;30.568;2024-03-02T07:44:13;102222.00;;;3.30
73937;BMP180;59249;59.736;30.568;2024-03-02T07:46:44;102226.00;;;3.40
73937;BMP180;59249;59.736;30.568;2024-03-02T07:49:14;102230.00;;;3.40
73937;BMP180;59249;59.736;30.568;2024-03-02T07:51:45;102226.00;;;3.40
73937;BMP180;59249;59.736;30.568;2024-03-02T07:54:14;102231.00;;;3.40
73937;BMP180;59249;59.736;30.568;2024-03-02T07:56:45;102244.00;;;3.30
73937;BMP180;59249;59.736;30.568;2024-03-02T07:59:16;102232.00;;;3.30
73937;BMP180;59249;59.736;30.568;2024-03-02T08:01:48;102226.00;;;3.40
73937;BMP180;59249;59.736;30.568;2024-03-02T08:04:22;102227.00;;;3.30
73937;BMP180;59249;59.736;30.568;2024-03-02T08:06:55;102218.00;;;3.30
73937;BMP180;59249;59.736;30.568;2024-03-02T08:09:24;102217.00;;;3.40
73937;BMP180;59249;59.736;30.568;2024-03-02T08:11:55;102217.00;;;3.50
73937;BMP180;59249;59.736;30.568;2024-03-02T08:14:25;102226.00;;;3.50
73937;BMP180;59249;59.736;30.568;2024-03-02T08:16:56;102226.00;;;3.50
73937;BMP180;59249;59.736;30.568;2024-03-02T08:19:27;102217.00;;;3.50
73937;BMP180;59249;59.736;30.568;2024-03-02T08:21:56;102227.00;;;3.50
73937;BMP180;59249;59.736;30.568;2024-03-02T08:24:28;102223.00;;;3.60
73937;BMP180;59249;59.736;30.568;2024-03-02T08:27:00;102226.00;;;3.70
73937;BMP180;59249;59.736;30.568;2024-03-02T08:29:30;102227.00;;;3.80
73937;BMP180;59249;59.736;30.568;2024-03-02T08:32:06;102217.00;;;3.70
73937;BMP180;59249;59.736;30.568;2024-03-02T08:34:40;102219.00;;;3.80
73937;BMP180;59249;59.736;30.568;2024-03-02T08:37:13;102223.00;;;3.90
73937;BMP180;59249;59.736;30.568;2024-03-02T08:40:11;102226.00;;;4.00
73937;BMP180;59249;59.736;30.568;2024-03-02T08:43:05;102229.00;;;4.00
73937;BMP180;59249;59.736;30.568;2024-03-02T08:45:40;102221.00;;;4.00
73937;BMP180;59249;59.736;30.568;2024-03-02T08:48:15;102220.00;;;4.10
73937;BMP180;59249;59.736;30.568;2024-03-02T08:50:49;102219.00;;;4.20
73937;BMP180;59249;59.736;30.568;2024-03-02T08:53:45;102224.00;;;4.20
73937;BMP180;59249;59.736;30.568;2024-03-02T08:56:21;102228.00;;;4.20
73937;BMP180;59249;59.736;30.568;2024-03-02T08:58:59;102232.00;;;4.30
73937;BMP180;59249;59.736;30.568;2024-03-02T09:01:29;102224.00;;;4.30
73937;BMP180;59249;59.736;30.568;2024-03-02T09:04:20;102231.00;;;4.30
73937;BMP180;59249;59.736;30.568;2024-03-02T09:06:54;102224.00;;;4.40
73937;BMP180;59249;59.736;30.568;2024-03-02T09:09:23;102231.00;;;4.30
73937;BMP180;59249;59.736;30.568;2024-03-02T09:11:55;102226.00;;;4.50
73937;BMP180;59249;59.736;30.568;2024-03-02T09:14:32;102222.00;;;4.50
73937;BMP180;59249;59.736;30.568;2024-03-02T09:17:14;102228.00;;;4.50
73937;BMP180;59249;59.736;30.568;2024-03-02T09:19:45;102227.00;;;4.60
73937;BMP180;59249;59.736;30.568;2024-03-02T09:22:15;102226.00;;;4.50
73937;BMP180;59249;59.736;30.568;2024-03-02T09:24:51;102229.00;;;4.60
73937;BMP180;59249;59.736;30.568;2024-03-02T09:30:34;102233.00;;;4.70
73937;BMP180;59249;59.736;30.568;2024-03-02T09:33:04;102226.00;;;4.70
73937;BMP180;59249;59.736;30.568;2024-03-02T09:35:45;102226.00;;;4.80
73937;BMP180;59249;59.736;30.568;2024-03-02T09:38:22;102235.00;;;4.90
73937;BMP180;59249;59.736;30.568;2024-03-02T09:40:56;102228.00;;;4.70
73937;BMP180;59249;59.736;30.568;2024-03-02T09:43:25;102226.00;;;4.80
73937;BMP180;59249;59.736;30.568;2024-03-02T09:45:57;102237.00;;;4.80
73937;BMP180;59249;59.736;30.568;2024-03-02T09:48:28;102230.00;;;5.00
73937;BMP180;59249;59.736;30.568;2024-03-02T09:51:04;102237.00;;;5.00
73937;BMP180;59249;59.736;30.568;2024-03-02T09:53:37;102240.00;;;5.00
73937;BMP180;59249;59.736;30.568;2024-03-02T09:56:06;102239.00;;;5.10
73937;BMP180;59249;59.736;30.568;2024-03-02T09:58:36;102235.00;;;5.10
73937;BMP180;59249;59.736;30.568;2024-03-02T10:01:15;102235.00;;;5.00
73937;BMP180;59249;59.736;30.568;2024-03-02T10:03:48;102237.00;;;5.00
73937;BMP180;59249;59.736;30.568;2024-03-02T10:06:38;102238.00;;;5.10
73937;BMP180;59249;59.736;30.568;2024-03-02T10:09:10;102233.00;;;5.10
73937;BMP180;59249;59.736;30.568;2024-03-02T10:12:03;102237.00;;;5.20
73937;BMP180;59249;59.736;30.568;2024-03-02T10:14:34;102244.00;;;5.10
73937;BMP180;59249;59.736;30.568;2024-03-02T10:17:05;102231.00;;;5.20
73937;BMP180;59249;59.736;30.568;2024-03-02T10:19:37;102233.00;;;5.20
73937;BMP180;59249;59.736;30.568;2024-03-02T10:22:09;102235.00;;;5.10
73937;BMP180;59249;59.736;30.568;2024-03-02T10:24:42;102238.00;;;5.20
73937;BMP180;59249;59.736;30.568;2024-03-02T10:27:23;102233.00;;;5.10
73937;BMP180;59249;59.736;30.568;2024-03-02T10:29:57;102239.00;;;5.20
73937;BMP180;59249;59.736;30.568;2024-03-02T10:32:38;102240.00;;;5.20
73937;BMP180;59249;59.736;30.568;2024-03-02T10:35:08;102240.00;;;5.30
73937;BMP180;59249;59.736;30.568;2024-03-02T10:37:42;102234.00;;;5.20
73937;BMP180;59249;59.736;30.568;2024-03-02T10:40:13;102229.00;;;5.30
73937;BMP180;59249;59.736;30.568;2024-03-02T10:42:45;102233.00;;;5.20
73937;BMP180;59249;59.736;30.568;2024-03-02T10:45:16;102235.00;;;5.20
73937;BMP180;59249;59.736;30.568;2024-03-02T10:47:49;102226.00;;;5.30
73937;BMP180;59249;59.736;30.568;2024-03-02T10:50:19;102228.00;;;5.30
73937;BMP180;59249;59.736;30.568;2024-03-02T10:52:50;102236.00;;;5.40
73937;BMP180;59249;59.736;30.568;2024-03-02T10:55:19;102233.00;;;5.40
73937;BMP180;59249;59.736;30.568;2024-03-02T10:57:53;102236.00;;;5.40
73937;BMP180;59249;59.736;30.568;2024-03-02T11:00:25;102241.00;;;5.40
73937;BMP180;59249;59.736;30.568;2024-03-02T11:03:05;102234.00;;;5.40
73937;BMP180;59249;59.736;30.568;2024-03-02T11:05:42;102246.00;;;5.50
73937;BMP180;59249;59.736;30.568;2024-03-02T11:08:18;102242.00;;;5.60
73937;BMP180;59249;59.736;30.568;2024-03-02T11:10:58;102233.00;;;5.60
73937;BMP180;59249;59.736;30.568;2024-03-02T11:13:37;102241.00;;;5.60
73937;BMP180;59249;59.736;30.568;2024-03-02T11:16:20;102231.00;;;5.70
73937;BMP180;59249;59.736;30.568;2024-03-02T11:18:59;102236.00;;;5.70
73937;BMP180;59249;59.736;30.568;2024-03-02T11:21:31;102232.00;;;5.70
73937;BMP180;59249;59.736;30.568;2024-03-02T11:24:34;102232.00;;;5.80
73937;BMP180;59249;59.736;30.568;2024-03-02T11:27:06;102225.00;;;5.90
73937;BMP180;59249;59.736;30.568;2024-03-02T11:29:47;102227.00;;;5.70
73937;BMP180;59249;59.736;30.568;2024-03-02T11:32:20;102217.00;;;5.90
73937;BMP180;59249;59.736;30.568;2024-03-02T11:34:51;102230.00;;;5.80
73937;BMP180;59249;59.736;30.568;2024-03-02T11:37:25;102218.00;;;5.80
73937;BMP180;59249;59.736;30.568;2024-03-02T11:40:04;102228.00;;;5.90
73937;BMP180;59249;59.736;30.568;2024-03-02T11:42:38;102226.00;;;5.90
73937;BMP180;59249;59.736;30.568;2024-03-02T11:45:10;102217.00;;;5.90
73937;BMP180;59249;59.736;30.568;2024-03-02T11:47:40;102215.00;;;5.90
73937;BMP180;59249;59.736;30.568;2024-03-02T11:50:29;102217.00;;;5.90
73937;BMP180;59249;59.736;30.568;2024-03-02T11:53:08;102215.00;;;5.90
73937;BMP180;59249;59.736;30.568;2024-03-02T11:55:44;102222.00;;;6.00
73937;BMP180;59249;59.736;30.568;2024-03-02T11:58:15;102226.00;;;6.00
73937;BMP180;59249;59.736;30.568;2024-03-02T12:00:54;102226.00;;;5.90
73937;BMP180;59249;59.736;30.568;2024-03-02T12:03:25;102225.00;;;6.00
73937;BMP180;59249;59.736;30.568;2024-03-02T12:05:55;102224.00;;;6.10
73937;BMP180;59249;59.736;30.568;2024-03-02T12:08:33;102221.00;;;6.10
73937;BMP180;59249;59.736;30.568;2024-03-02T12:11:05;102228.00;;;6.20
73937;BMP180;59249;59.736;30.568;2024-03-02T12:13:36;102219.00;;;6.20
73937;BMP180;59249;59.736;30.568;2024-03-02T12:16:24;102223.00;;;6.20
73937;BMP180;59249;59.736;30.568;2024-03-02T12:18:57;102231.00;;;6.20
73937;BMP180;59249;59.736;30.568;2024-03-02T12:21:43;102234.00;;;6.30
73937;BMP180;59249;59.736;30.568;2024-03-02T12:24:15;102229.00;;;6.30
73937;BMP180;59249;59.736;30.568;2024-03-02T12:26:46;102235.00;;;6.30
73937;BMP180;59249;59.736;30.568;2024-03-02T12:29:19;102238.00;;;6.20
73937;BMP180;59249;59.736;30.568;2024-03-02T12:31:57;102241.00;;;6.30
73937;BMP180;59249;59.736;30.568;2024-03-02T12:34:31;102243.00;;;6.40
73937;BMP180;59249;59.736;30.568;2024-03-02T12:37:00;102237.00;;;6.30
73937;BMP180;59249;59.736;30.568;2024-03-02T12:39:30;102236.00;;;6.40
73937;BMP180;59249;59.736;30.568;2024-03-02T12:42:02;102232.00;;;6.30
73937;BMP180;59249;59.736;30.568;2024-03-02T12:44:35;102234.00;;;6.40
73937;BMP180;59249;59.736;30.568;2024-03-02T12:47:05;102237.00;;;6.30
73937;BMP180;59249;59.736;30.568;2024-03-02T12:49:35;102241.00;;;6.40
73937;BMP180;59249;59.736;30.568;2024-03-02T12:52:08;102231.00;;;6.40
73937;BMP180;59249;59.736;30.568;2024-03-02T12:54:52;102239.00;;;6.20
73937;BMP180;59249;59.736;30.568;2024-03-02T12:57:33;102237.00;;;6.20
73937;BMP180;59249;59.736;30.568;2024-03-02T13:00:18;102228.00;;;6.20
73937;BMP180;59249;59.736;30.568;2024-03-02T13:02:58;102226.00;;;6.10
73937;BMP180;59249;59.736;30.568;2024-03-02T13:05:31;102224.00;;;6.20
73937;BMP180;59249;59.736;30.568;2024-03-02T13:08:02;102223.00;;;6.20
73937;BMP180;59249;59.736;30.568;2024-03-02T13:10:35;102223.00;;;6.10
73937;BMP180;59249;59.736;30.568;2024-03-02T13:13:26;102222.00;;;6.20
73937;BMP180;59249;59.736;30.568;2024-03-02T13:15:59;102219.00;;;6.20
73937;BMP180;59249;59.736;30.568;2024-03-02T13:18:41;102218.00;;;6.20
73937;BMP180;59249;59.736;30.568;2024-03-02T13:21:31;102216.00;;;6.20
73937;BMP180;59249;59.736;30.568;2024-03-02T13:24:16;102226.00;;;6.30
73937;BMP180;59249;59.736;30.568;2024-03-02T13:26:56;102216.00;;;6.20
73937;BMP180;59249;59.736;30.568;2024-03-02T13:29:30;102215.00;;;6.20
73937;BMP180;59249;59.736;30.568;2024-03-02T13:32:06;102213.00;;;6.10
73937;BMP180;59249;59.736;30.568;2024-03-02T13:34:38;102220.00;;;6.10
73937;BMP180;59249;59.736;30.568;2024-03-02T13:37:14;102221.00;;;6.10
73937;BMP180;59249;59.736;30.568;2024-03-02T13:39:54;102219.00;;;6.10
73937;BMP180;59249;59.736;30.568;2024-03-02T13:42:47;102215.00;;;6.10
73937;BMP180;59249;59.736;30.568;2024-03-02T13:45:19;102222.00;;;6.10
73937;BMP180;59249;59.736;30.568;2024-03-02T13:47:51;102213.00;;;6.10
73937;BMP180;59249;59.736;30.568;2024-03-02T13:50:24;102209.00;;;6.10
73937;BMP180;59249;59.736;30.568;2024-03-02T13:52:53;102205.00;;;6.10
73937;BMP180;59249;59.736;30.568;2024-03-02T13:55:31;102208.00;;;6.10
73937;BMP180;59249;59.736;30.568;2024-03-02T13:58:08;102206.00;;;6.20
73937;BMP180;59249;59.736;30.568;2024-03-02T14:00:47;102204.00;;;6.10
73937;BMP180;59249;59.736;30.568;2024-03-02T14:03:18;102201.00;;;6.10
73937;BMP180;59249;59.736;30.568;2024-03-02T14:05:52;102202.00;;;6.00
73937;BMP180;59249;59.736;30.568;2024-03-02T14:08:27;102211.00;;;6.00
73937;BMP180;59249;59.736;30.568;2024-03-02T14:10:59;102206.00;;;5.90
73937;BMP180;59249;59.736;30.568;2024-03-02T14:13:39;102209.00;;;5.90
73937;BMP180;59249;59.736;30.568;2024-03-02T14:16:12;102208.00;;;6.00
73937;BMP180;59249;59.736;30.568;2024-03-02T14:18:41;102207.00;;;6.00
73937;BMP180;59249;59.736;30.568;2024-03-02T14:21:10;102208.00;;;5.90
73937;BMP180;59249;59.736;30.568;2024-03-02T14:23:42;102193.00;;;5.90
73937;BMP180;59249;59.736;30.568;2024-03-02T14:26:12;102198.00;;;5.90
73937;BMP180;59249;59.736;30.568;2024-03-02T14:28:42;102194.00;;;5.90
73937;BMP180;59249;59.736;30.568;2024-03-02T14:31:20;102200.00;;;5.90
73937;BMP180;59249;59.736;30.568;2024-03-02T14:33:51;102200.00;;;5.80
73937;BMP180;59249;59.736;30.568;2024-03-02T14:36:22;102212.00;;;5.70
73937;BMP180;59249;59.736;30.568;2024-03-02T14:38:54;102201.00;;;5.70
73937;BMP180;59249;59.736;30.568;2024-03-02T14:41:31;102202.00;;;5.70